createdAt,value
2023-09-27T00:00:00.817Z,60.54
2023-09-27T00:02:27.523Z,60.92
2023-09-27T00:04:54.462Z,60.89
2023-09-27T00:07:21.181Z,61.37
2023-09-27T00:09:47.837Z,60.89
2023-09-27T00:12:16.730Z,61.08
2023-09-27T00:14:43.427Z,60.61
2023-09-27T00:17:10.111Z,61.43
2023-09-27T00:19:36.750Z,61.00
2023-09-27T00:22:03.560Z,61.51
2023-09-27T00:24:30.197Z,61.48
2023-09-27T00:26:56.909Z,60.48
2023-09-27T00:29:23.581Z,60.38
2023-09-27T00:31:50.337Z,61.58
2023-09-27T00:34:17.055Z,60.91
2023-09-27T00:36:43.664Z,60.40
2023-09-27T00:39:10.400Z,60.81
2023-09-27T00:41:38.130Z,60.45
2023-09-27T00:44:05.079Z,60.61
2023-09-27T00:46:32.805Z,61.06
2023-09-27T00:48:59.957Z,61.07
2023-09-27T00:51:27.730Z,60.82
2023-09-27T00:53:56.027Z,60.31
2023-09-27T00:56:24.092Z,60.35
2023-09-27T00:58:51.475Z,59.34
2023-09-27T01:01:18.423Z,59.63
2023-09-27T01:03:45.645Z,60.19
2023-09-27T01:06:13.172Z,59.90
2023-09-27T01:08:39.873Z,60.15
2023-09-27T01:11:06.690Z,60.13
2023-09-27T01:13:33.896Z,59.78
2023-09-27T01:16:03.310Z,59.86
2023-09-27T01:18:30.388Z,59.83
2023-09-27T01:20:57.157Z,59.40
2023-09-27T01:23:25.259Z,58.88
2023-09-27T01:25:59.541Z,59.48
2023-09-27T01:28:26.371Z,58.96
2023-09-27T01:30:53.207Z,59.72
2023-09-27T01:33:19.853Z,59.80
2023-09-27T01:35:46.537Z,60.00
2023-09-27T01:38:14.118Z,60.15
2023-09-27T01:40:42.990Z,60.28
2023-09-27T01:43:10.440Z,60.72
2023-09-27T01:45:37.988Z,60.76
2023-09-27T01:48:05.418Z,60.97
2023-09-27T01:50:37.279Z,61.18
2023-09-27T01:53:04.499Z,60.91
2023-09-27T01:55:32.534Z,60.25
2023-09-27T01:58:00.304Z,61.59
2023-09-27T02:00:26.988Z,60.68
2023-09-27T02:02:59.276Z,61.47
2023-09-27T02:05:27.619Z,62.12
2023-09-27T02:07:54.598Z,62.88
2023-09-27T02:10:21.898Z,63.27
2023-09-27T02:12:48.744Z,63.42
2023-09-27T02:15:16.744Z,64.64
2023-09-27T02:17:44.763Z,65.08
2023-09-27T02:20:14.432Z,65.58
2023-09-27T02:22:42.732Z,65.61
2023-09-27T02:25:12.376Z,65.88
2023-09-27T02:27:40.174Z,66.23
2023-09-27T02:30:15.199Z,66.27
2023-09-27T02:32:46.381Z,67.42
2023-09-27T02:35:18.508Z,66.47
2023-09-27T02:37:45.595Z,67.09
2023-09-27T02:40:17.236Z,67.01
2023-09-27T02:42:45.620Z,68.63
2023-09-27T02:45:13.660Z,67.42
2023-09-27T02:47:44.765Z,67.97
2023-09-27T02:50:13.033Z,67.13
2023-09-27T02:52:40.195Z,67.36
2023-09-27T02:55:10.216Z,68.16
2023-09-27T02:57:37.715Z,67.54
2023-09-27T03:00:05.199Z,68.08
2023-09-27T03:02:35.241Z,67.83
2023-09-27T03:05:05.946Z,68.84
2023-09-27T03:07:34.860Z,68.00
2023-09-27T03:10:02.452Z,67.68
2023-09-27T03:12:29.398Z,67.50
2023-09-27T03:14:56.217Z,67.37
2023-09-27T03:17:22.909Z,67.54
2023-09-27T03:19:49.588Z,67.53
2023-09-27T03:22:16.239Z,67.40
2023-09-27T03:24:42.928Z,67.51
2023-09-27T03:27:10.531Z,67.65
2023-09-27T03:29:37.212Z,68.52
2023-09-27T03:32:04.131Z,68.51
2023-09-27T03:34:32.998Z,68.28
2023-09-27T03:36:59.832Z,68.11
2023-09-27T03:39:30.090Z,68.14
2023-09-27T03:41:57.670Z,68.70
2023-09-27T03:44:25.228Z,69.21
2023-09-27T03:46:52.148Z,69.15
2023-09-27T03:49:19.217Z,69.32
2023-09-27T03:51:45.864Z,69.53
2023-09-27T03:54:12.533Z,69.66
2023-09-27T03:56:39.236Z,68.63
2023-09-27T03:59:05.921Z,68.28
2023-09-27T04:01:32.795Z,68.93
2023-09-27T04:03:59.701Z,68.86
2023-09-27T04:06:26.418Z,69.01
2023-09-27T04:08:53.610Z,69.33
2023-09-27T04:11:20.479Z,68.88
2023-09-27T04:13:47.228Z,68.40
2023-09-27T04:16:13.959Z,69.22
2023-09-27T04:18:40.731Z,69.31
2023-09-27T04:21:10.559Z,69.13
2023-09-27T04:23:37.593Z,69.63
2023-09-27T04:26:07.638Z,69.23
2023-09-27T04:28:35.101Z,68.98
2023-09-27T04:31:02.233Z,68.83
2023-09-27T04:33:28.941Z,69.07
2023-09-27T04:35:55.627Z,69.92
2023-09-27T04:38:22.628Z,68.42
2023-09-27T04:40:49.391Z,67.36
2023-09-27T04:43:16.121Z,68.23
2023-09-27T04:45:43.156Z,68.97
2023-09-27T04:48:09.887Z,69.23
2023-09-27T04:50:36.691Z,68.40
2023-09-27T04:53:03.551Z,68.82
2023-09-27T04:55:30.241Z,67.71
2023-09-27T04:57:56.917Z,67.04
2023-09-27T05:00:24.029Z,67.13
2023-09-27T05:02:53.337Z,67.62
2023-09-27T05:05:20.383Z,68.04
2023-09-27T05:07:47.537Z,66.80
2023-09-27T05:10:14.432Z,67.63
2023-09-27T05:12:41.280Z,66.52
2023-09-27T05:15:09.430Z,66.60
2023-09-27T05:17:36.649Z,67.46
2023-09-27T05:20:13.182Z,65.51
2023-09-27T05:22:41.557Z,65.91
2023-09-27T05:25:09.405Z,65.99
2023-09-27T05:27:36.026Z,65.11
2023-09-27T05:30:02.737Z,66.50
2023-09-27T05:32:29.470Z,65.96
2023-09-27T05:34:56.220Z,65.05
2023-09-27T05:37:23.970Z,65.63
2023-09-27T05:39:51.729Z,64.31
2023-09-27T05:42:18.317Z,63.07
2023-09-27T05:44:45.187Z,61.94
2023-09-27T05:47:13.948Z,62.45
2023-09-27T05:49:41.528Z,62.84
2023-09-27T05:52:13.946Z,62.68
2023-09-27T05:54:40.595Z,61.12
2023-09-27T05:57:07.811Z,60.58
2023-09-27T05:59:35.084Z,60.94
2023-09-27T06:02:01.990Z,60.83
2023-09-27T06:04:28.661Z,60.07
2023-09-27T06:06:55.353Z,60.64
2023-09-27T06:09:22.739Z,60.09
2023-09-27T06:11:50.767Z,59.73
2023-09-27T06:14:17.460Z,61.14
2023-09-27T06:16:46.433Z,60.40
2023-09-27T06:19:13.334Z,60.26
2023-09-27T06:21:41.469Z,60.20
2023-09-27T06:24:09.071Z,58.61
2023-09-27T06:26:35.851Z,58.43
2023-09-27T06:29:02.746Z,56.88
2023-09-27T06:31:30.365Z,55.07
2023-09-27T06:33:57.260Z,55.71
2023-09-27T06:36:24.047Z,54.49
2023-09-27T06:38:51.788Z,53.28
2023-09-27T06:41:19.268Z,52.82
2023-09-27T06:43:46.846Z,53.58
2023-09-27T06:46:15.362Z,51.65
2023-09-27T06:48:44.803Z,54.05
2023-09-27T06:51:14.803Z,52.85
2023-09-27T06:53:43.488Z,50.66
2023-09-27T06:56:10.412Z,51.23
2023-09-27T06:58:37.087Z,51.64
2023-09-27T07:01:03.800Z,52.44
2023-09-27T07:03:35.757Z,50.29
2023-09-27T07:06:04.023Z,51.00
2023-09-27T07:08:31.136Z,50.38
2023-09-27T07:11:09.624Z,50.15
2023-09-27T07:13:38.408Z,49.57
2023-09-27T07:16:31.201Z,47.54
2023-09-27T07:19:00.935Z,46.93
2023-09-27T07:21:29.350Z,46.24
2023-09-27T07:23:56.382Z,46.67
2023-09-27T07:26:23.080Z,46.91
2023-09-27T07:28:50.584Z,46.66
2023-09-27T07:31:18.280Z,46.34
2023-09-27T07:33:46.414Z,46.54
2023-09-27T07:36:13.495Z,46.11
2023-09-27T07:38:41.141Z,46.42
2023-09-27T07:41:10.372Z,45.09
2023-09-27T07:43:37.622Z,45.48
2023-09-27T07:46:08.473Z,44.63
2023-09-27T07:48:39.490Z,44.99
2023-09-27T07:51:16.349Z,43.98
2023-09-27T07:53:43.150Z,42.84
2023-09-27T07:56:23.152Z,42.16
2023-09-27T07:58:53.419Z,43.34
2023-09-27T08:01:22.078Z,44.05
2023-09-27T08:04:11.705Z,41.43
2023-09-27T08:06:39.706Z,40.60
2023-09-27T08:09:17.606Z,40.65
2023-09-27T08:11:51.881Z,40.97
2023-09-27T08:14:20.775Z,40.39
2023-09-27T08:16:47.855Z,39.88
2023-09-27T08:19:14.804Z,39.50
2023-09-27T08:21:41.464Z,39.94
2023-09-27T08:24:09.494Z,38.80
2023-09-27T08:26:37.506Z,38.50
2023-09-27T08:29:07.197Z,38.78
2023-09-27T08:31:37.379Z,39.62
2023-09-27T08:34:05.311Z,39.00
2023-09-27T08:36:32.279Z,39.43
2023-09-27T08:38:59.059Z,38.43
2023-09-27T08:41:25.779Z,38.96
2023-09-27T08:43:53.534Z,38.97
2023-09-27T08:46:22.057Z,39.05
2023-09-27T08:48:49.967Z,38.80
2023-09-27T08:51:16.671Z,39.32
2023-09-27T08:53:43.489Z,38.35
2023-09-27T08:56:13.268Z,39.20
2023-09-27T08:58:41.913Z,37.55
2023-09-27T09:01:09.231Z,38.39
2023-09-27T09:03:37.773Z,38.06
2023-09-27T09:06:12.415Z,37.78
2023-09-27T09:08:44.234Z,36.28
2023-09-27T09:11:12.901Z,37.20
2023-09-27T09:14:11.733Z,37.28
2023-09-27T09:16:45.841Z,37.43
2023-09-27T09:19:37.487Z,37.08
2023-09-27T09:22:10.999Z,37.27
2023-09-27T09:24:42.292Z,38.25
2023-09-27T09:27:12.618Z,37.20
2023-09-27T09:29:54.774Z,36.85
2023-09-27T09:32:28.856Z,36.05
2023-09-27T09:34:56.565Z,35.08
2023-09-27T09:37:25.502Z,35.38
2023-09-27T09:39:54.370Z,33.04
2023-09-27T09:42:34.723Z,33.31
2023-09-27T09:45:08.378Z,31.92
2023-09-27T09:47:38.884Z,32.61
2023-09-27T09:50:07.723Z,32.64
2023-09-27T09:52:36.970Z,32.45
2023-09-27T09:55:25.600Z,32.01
2023-09-27T09:58:10.850Z,31.31
2023-09-27T10:00:43.470Z,31.82
2023-09-27T10:03:20.738Z,30.84
2023-09-27T10:05:51.374Z,31.18
2023-09-27T10:08:20.125Z,32.20
2023-09-27T10:10:47.413Z,32.83
2023-09-27T10:13:19.474Z,32.81
2023-09-27T10:15:46.423Z,32.57
2023-09-27T10:18:25.337Z,32.39
2023-09-27T10:21:04.299Z,33.15
2023-09-27T10:23:46.843Z,33.89
2023-09-27T10:26:37.603Z,32.98
2023-09-27T10:29:30.083Z,32.73
2023-09-27T10:32:07.820Z,32.83
2023-09-27T10:34:42.789Z,32.37
2023-09-27T10:37:18.633Z,33.18
2023-09-27T10:40:22.633Z,33.19
2023-09-27T10:43:36.667Z,33.37
2023-09-27T10:46:06.922Z,33.86
2023-09-27T10:48:36.894Z,32.26
2023-09-27T10:51:05.877Z,32.30
2023-09-27T10:53:34.127Z,32.99
2023-09-27T10:56:00.982Z,32.66
2023-09-27T10:58:27.743Z,33.26
2023-09-27T11:01:01.820Z,33.29
2023-09-27T11:03:34.598Z,33.60
2023-09-27T11:06:09.594Z,34.96
2023-09-27T11:08:36.336Z,34.57
2023-09-27T11:11:03.052Z,33.19
2023-09-27T11:13:30.975Z,33.71
2023-09-27T11:16:19.895Z,33.91
2023-09-27T11:18:50.323Z,32.49
2023-09-27T11:21:17.475Z,33.15
2023-09-27T11:23:58.632Z,32.42
2023-09-27T11:26:33.313Z,31.59
2023-09-27T11:29:05.127Z,32.00
2023-09-27T11:31:32.715Z,32.26
2023-09-27T11:34:21.576Z,30.82
2023-09-27T11:36:52.577Z,31.21
2023-09-27T11:39:20.960Z,31.84
2023-09-27T11:41:47.735Z,31.89
2023-09-27T11:44:36.364Z,31.47
2023-09-27T11:47:10.125Z,30.78
2023-09-27T11:49:37.391Z,30.50
2023-09-27T11:52:11.478Z,31.27
2023-09-27T11:54:46.420Z,31.88
2023-09-27T11:57:13.379Z,31.90
2023-09-27T11:59:40.420Z,30.84
2023-09-27T12:02:16.785Z,28.92
2023-09-27T12:05:09.842Z,28.92
2023-09-27T12:07:37.271Z,28.24
2023-09-27T12:10:22.867Z,28.00
2023-09-27T12:12:49.748Z,27.99
2023-09-27T12:15:16.656Z,27.84
2023-09-27T12:17:44.267Z,27.30
2023-09-27T12:20:22.506Z,27.54
2023-09-27T12:23:16.830Z,25.53
2023-09-27T12:25:43.494Z,27.74
2023-09-27T12:28:29.314Z,29.24
2023-09-27T12:30:55.987Z,31.04
2023-09-27T12:33:23.143Z,33.29
2023-09-27T12:35:51.276Z,34.36
2023-09-27T12:38:18.126Z,35.83
2023-09-27T12:40:44.862Z,36.43
2023-09-27T12:43:11.881Z,36.66
2023-09-27T12:45:57.214Z,36.28
2023-09-27T12:48:24.001Z,35.44
2023-09-27T12:50:50.761Z,33.68
2023-09-27T12:53:35.805Z,31.77
2023-09-27T12:56:05.626Z,30.82
2023-09-27T12:59:10.012Z,31.90
2023-09-27T13:02:13.738Z,33.79
2023-09-27T13:04:40.476Z,34.88
2023-09-27T13:09:51.449Z,35.93
2023-09-27T13:12:18.873Z,36.96
2023-09-27T13:14:46.183Z,37.67
2023-09-27T13:17:13.002Z,38.37
2023-09-27T13:19:58.273Z,39.47
2023-09-27T13:22:43.676Z,39.76
2023-09-27T13:25:29.309Z,39.75
2023-09-27T13:27:56.279Z,40.25
2023-09-27T13:30:41.611Z,41.17
2023-09-27T13:33:08.333Z,41.24
2023-09-27T13:35:36.934Z,40.86
2023-09-27T13:38:07.848Z,40.53
2023-09-27T13:40:35.130Z,40.47
2023-09-27T13:43:21.077Z,41.40
2023-09-27T13:45:48.378Z,40.69
2023-09-27T13:48:15.344Z,41.21
2023-09-27T13:51:00.995Z,41.28
2023-09-27T13:56:30.246Z,41.77
2023-09-27T13:59:15.820Z,41.60
2023-09-27T14:02:20.078Z,41.60
2023-09-27T14:04:46.764Z,42.30
2023-09-27T14:07:13.474Z,42.27
2023-09-27T14:09:40.268Z,42.53
2023-09-27T14:12:07.140Z,42.87
2023-09-27T14:14:34.696Z,42.59
2023-09-27T14:17:02.945Z,43.22
2023-09-27T14:19:30.830Z,42.78
2023-09-27T14:25:02.533Z,42.47
2023-09-27T14:27:29.537Z,42.69
2023-09-27T14:29:56.267Z,41.90
2023-09-27T14:32:23.605Z,42.63
2023-09-27T14:35:08.826Z,42.73
2023-09-27T14:38:13.336Z,42.57
2023-09-27T14:40:40.040Z,42.11
2023-09-27T14:43:06.877Z,42.54
2023-09-27T14:45:33.747Z,42.30
2023-09-27T14:48:01.693Z,41.22
2023-09-27T14:50:28.650Z,41.73
2023-09-27T14:52:55.450Z,41.82
2023-09-27T14:55:24.747Z,41.89
2023-09-27T14:57:51.465Z,41.17
2023-09-27T15:00:23.512Z,40.99
2023-09-27T15:02:59.171Z,42.06
2023-09-27T15:08:51.904Z,41.46
2023-09-27T15:14:35.857Z,41.41
2023-09-27T15:17:02.645Z,41.41
2023-09-27T15:19:29.331Z,42.24
2023-09-27T15:24:42.646Z,41.74
2023-09-27T15:27:10.239Z,41.26
2023-09-27T15:29:36.951Z,42.14
2023-09-27T15:32:03.872Z,41.78
2023-09-27T15:34:30.796Z,41.00
2023-09-27T15:36:57.516Z,41.03
2023-09-27T15:39:42.669Z,40.58
2023-09-27T15:42:27.789Z,40.73
2023-09-27T15:44:54.429Z,41.11
2023-09-27T15:47:21.048Z,40.12
2023-09-27T15:49:47.713Z,39.52
2023-09-27T15:52:14.560Z,40.41
2023-09-27T15:54:43.062Z,39.11
2023-09-27T15:57:09.781Z,39.58
2023-09-27T15:59:36.446Z,39.13
2023-09-27T16:02:03.854Z,39.40
2023-09-27T16:04:53.096Z,39.54
2023-09-27T16:07:21.775Z,39.46
2023-09-27T16:09:48.528Z,39.88
2023-09-27T16:12:33.496Z,39.55
2023-09-27T16:15:00.538Z,39.78
2023-09-27T16:17:27.735Z,40.16
2023-09-27T16:19:54.433Z,40.43
2023-09-27T16:22:21.121Z,40.84
2023-09-27T16:24:47.954Z,39.92
2023-09-27T16:27:14.668Z,41.54
2023-09-27T16:29:41.440Z,41.98
2023-09-27T16:32:27.429Z,40.75
2023-09-27T16:34:54.356Z,40.96
2023-09-27T16:37:39.923Z,41.40
2023-09-27T16:40:07.556Z,41.77
2023-09-27T16:42:34.329Z,41.73
2023-09-27T16:45:20.531Z,41.83
2023-09-27T16:47:47.247Z,43.24
2023-09-27T16:50:13.979Z,41.85
2023-09-27T16:55:25.228Z,42.16
2023-09-27T16:57:52.513Z,42.18
2023-09-27T17:00:19.233Z,42.32
2023-09-27T17:02:46.020Z,42.05
2023-09-27T17:05:31.232Z,43.86
2023-09-27T17:07:58.106Z,43.80
2023-09-27T17:10:25.026Z,44.55
2023-09-27T17:12:51.760Z,45.29
2023-09-27T17:15:20.770Z,44.52
2023-09-27T17:18:06.632Z,45.53
2023-09-27T17:20:51.599Z,45.59
2023-09-27T17:23:56.457Z,46.35
2023-09-27T17:26:23.328Z,45.88
2023-09-27T17:29:08.458Z,46.14
2023-09-27T17:31:37.048Z,46.76
2023-09-27T17:34:08.401Z,46.72
2023-09-27T17:36:35.275Z,47.03
2023-09-27T17:39:01.997Z,47.32
2023-09-27T17:41:28.677Z,47.07
2023-09-27T17:44:14.171Z,46.96
2023-09-27T17:46:59.704Z,47.49
2023-09-27T17:49:27.473Z,46.72
2023-09-27T17:54:40.066Z,47.40
2023-09-27T17:57:06.727Z,48.73
2023-09-27T17:59:33.459Z,48.64
2023-09-27T18:02:00.185Z,48.43
2023-09-27T18:05:04.315Z,49.34
2023-09-27T18:07:31.042Z,49.91
2023-09-27T18:09:57.673Z,50.18
2023-09-27T18:12:24.366Z,50.17
2023-09-27T18:14:51.088Z,50.88
2023-09-27T18:17:17.743Z,50.78
2023-09-27T18:20:03.412Z,51.21
2023-09-27T18:22:30.249Z,50.48
2023-09-27T18:25:15.383Z,50.88
2023-09-27T18:27:42.100Z,51.32
2023-09-27T18:30:09.484Z,50.88
2023-09-27T18:32:54.774Z,49.20
2023-09-27T18:35:21.503Z,50.51
2023-09-27T18:38:06.999Z,50.41
2023-09-27T18:40:36.025Z,50.80
2023-09-27T18:43:21.247Z,51.43
2023-09-27T18:45:48.145Z,51.70
2023-09-27T18:48:19.648Z,51.06
2023-09-27T18:50:49.994Z,50.73
2023-09-27T18:53:16.894Z,51.74
2023-09-27T18:55:43.790Z,51.75
2023-09-27T18:58:14.078Z,51.33
2023-09-27T19:00:59.864Z,51.11
2023-09-27T19:03:26.546Z,52.17
2023-09-27T19:08:19.737Z,53.70
2023-09-27T19:10:46.722Z,52.75
2023-09-27T19:13:32.013Z,53.36
2023-09-27T19:15:58.822Z,53.85
2023-09-27T19:18:25.545Z,53.40
2023-09-27T19:20:53.391Z,53.64
2023-09-27T19:26:03.900Z,53.61
2023-09-27T19:28:30.571Z,55.35
2023-09-27T19:31:15.795Z,54.63
2023-09-27T19:33:43.424Z,54.67
2023-09-27T19:36:34.828Z,55.21
2023-09-27T19:39:01.511Z,54.47
2023-09-27T19:41:30.685Z,54.63
2023-09-27T19:44:15.992Z,53.74
2023-09-27T19:46:42.620Z,52.61
2023-09-27T19:49:27.787Z,52.42
2023-09-27T19:51:54.714Z,50.56
2023-09-27T19:54:21.363Z,50.58
2023-09-27T19:56:48.521Z,49.61
2023-09-27T19:59:34.129Z,49.93
2023-09-27T20:02:00.767Z,50.00
2023-09-27T20:04:46.082Z,50.11
2023-09-27T20:07:12.760Z,50.15
2023-09-27T20:09:39.480Z,49.94
2023-09-27T20:12:43.098Z,49.39
2023-09-27T20:15:12.893Z,49.28
2023-09-27T20:17:40.520Z,48.94
2023-09-27T20:20:08.719Z,49.06
2023-09-27T20:22:53.685Z,48.93
2023-09-27T20:25:20.675Z,48.39
2023-09-27T20:27:47.720Z,49.18
2023-09-27T20:30:32.914Z,49.19
2023-09-27T20:32:59.531Z,49.45
2023-09-27T20:35:26.966Z,50.17
2023-09-27T20:40:56.580Z,50.44
2023-09-27T20:43:23.298Z,51.44
2023-09-27T20:46:17.150Z,50.83
2023-09-27T20:49:03.046Z,50.17
2023-09-27T20:52:06.849Z,50.76
2023-09-27T20:54:52.069Z,49.94
2023-09-27T20:57:18.789Z,52.58
2023-09-27T20:59:45.536Z,49.77
2023-09-27T21:02:31.037Z,50.21
2023-09-27T21:05:00.581Z,50.41
2023-09-27T21:07:27.794Z,49.45
2023-09-27T21:12:38.508Z,49.90
2023-09-27T21:17:50.436Z,48.46
2023-09-27T21:20:17.169Z,49.41
2023-09-27T21:23:02.054Z,49.60
2023-09-27T21:25:29.118Z,49.00
2023-09-27T21:27:55.771Z,49.73
2023-09-27T21:30:22.454Z,48.93
2023-09-27T21:32:50.742Z,49.80
2023-09-27T21:35:35.875Z,49.76
2023-09-27T21:38:02.517Z,49.81
2023-09-27T21:40:49.136Z,49.88
2023-09-27T21:43:16.106Z,49.70
2023-09-27T21:46:20.572Z,50.03
2023-09-27T21:48:49.222Z,50.08
2023-09-27T21:51:35.454Z,49.75
2023-09-27T21:54:02.108Z,51.00
2023-09-27T21:56:47.363Z,50.77
2023-09-27T21:59:14.092Z,50.20
2023-09-27T22:01:40.863Z,50.31
2023-09-27T22:04:07.691Z,50.85
2023-09-27T22:06:34.328Z,51.41
2023-09-27T22:09:01.073Z,50.34
2023-09-27T22:11:46.308Z,50.85
2023-09-27T22:14:31.406Z,50.48
2023-09-27T22:16:58.358Z,50.59
2023-09-27T22:19:29.074Z,50.60
2023-09-27T22:22:21.521Z,50.21
2023-09-27T22:24:48.813Z,50.23
2023-09-27T22:27:17.071Z,49.83
2023-09-27T22:29:44.639Z,51.05
2023-09-27T22:32:11.428Z,51.24
2023-09-27T22:34:38.617Z,51.53
2023-09-27T22:37:05.954Z,51.24
2023-09-27T22:39:32.815Z,51.04
2023-09-27T22:42:18.476Z,52.20
2023-09-27T22:45:04.035Z,51.68
2023-09-27T22:47:30.694Z,51.60
2023-09-27T22:50:15.912Z,51.85
2023-09-27T22:52:43.717Z,52.22
2023-09-27T22:55:10.471Z,51.96
2023-09-27T23:00:23.453Z,52.61
2023-09-27T23:02:55.711Z,53.02
2023-09-27T23:05:45.224Z,53.16
2023-09-27T23:08:13.658Z,53.11
2023-09-27T23:10:41.332Z,52.61
2023-09-27T23:13:25.221Z,52.91
2023-09-27T23:15:55.784Z,53.74
2023-09-27T23:18:46.597Z,54.64
2023-09-27T23:21:31.951Z,53.31
2023-09-27T23:24:00.784Z,54.19
2023-09-27T23:26:51.412Z,54.53
2023-09-27T23:29:37.529Z,54.79
2023-09-27T23:32:31.207Z,55.16
2023-09-27T23:38:19.615Z,54.94
2023-09-27T23:41:04.597Z,54.37
2023-09-27T23:43:41.529Z,54.69
2023-09-27T23:46:18.879Z,55.72
2023-09-27T23:48:45.516Z,56.57
2023-09-27T23:51:12.249Z,56.34
2023-09-27T23:53:38.933Z,55.51
2023-09-27T23:56:07.862Z,56.29
2023-09-27T23:58:54.368Z,56.72
